sensor_id;sensor_type;location;lat;lon;timestamp;temperature;humidity
2623;DHT22;1321;48.690;9.022;2022-12-18T00:02:24;-7.10;1.00
2623;DHT22;1321;48.690;9.022;2022-12-18T00:04:52;-7.10;1.00
2623;DHT22;1321;48.690;9.022;2022-12-18T00:07:20;-7.10;1.00
2623;DHT22;1321;48.690;9.022;2022-12-18T00:09:48;-7.10;1.00
2623;DHT22;1321;48.690;9.022;2022-12-18T00:12:18;-7.20;1.00
2623;DHT22;1321;48.690;9.022;2022-12-18T00:14:46;-7.20;1.00
2623;DHT22;1321;48.690;9.022;2022-12-18T00:17:14;-7.30;1.00
2623;DHT22;1321;48.690;9.022;2022-12-18T00:19:42;-7.30;1.00
2623;DHT22;1321;48.690;9.022;2022-12-18T00:22:10;-7.20;1.00
2623;DHT22;1321;48.690;9.022;2022-12-18T00:24:38;-7.10;1.00
2623;DHT22;1321;48.690;9.022;2022-12-18T00:27:06;-7.10;1.00
2623;DHT22;1321;48.690;9.022;2022-12-18T00:30:15;-7.10;1.00
2623;DHT22;1321;48.690;9.022;2022-12-18T00:32:49;-7.10;1.00
2623;DHT22;1321;48.690;9.022;2022-12-18T00:35:17;-7.20;1.00
2623;DHT22;1321;48.690;9.022;2022-12-18T00:37:46;-7.00;1.00
2623;DHT22;1321;48.690;9.022;2022-12-18T00:40:14;-7.10;1.00
2623;DHT22;1321;48.690;9.022;2022-12-18T00:42:42;-7.30;1.00
2623;DHT22;1321;48.690;9.022;2022-12-18T00:45:27;-7.20;1.00
2623;DHT22;1321;48.690;9.022;2022-12-18T00:47:56;-7.20;1.00
2623;DHT22;1321;48.690;9.022;2022-12-18T00:50:25;-7.20;1.00
2623;DHT22;1321;48.690;9.022;2022-12-18T00:52:53;-7.10;1.00
2623;DHT22;1321;48.690;9.022;2022-12-18T00:55:22;-7.00;1.00
2623;DHT22;1321;48.690;9.022;2022-12-18T00:57:51;-7.10;1.00
2623;DHT22;1321;48.690;9.022;2022-12-18T01:00:19;-7.20;1.00
2623;DHT22;1321;48.690;9.022;2022-12-18T01:02:49;-7.30;1.00
2623;DHT22;1321;48.690;9.022;2022-12-18T01:05:17;-7.30;1.00
2623;DHT22;1321;48.690;9.022;2022-12-18T01:07:45;-7.30;1.00
2623;DHT22;1321;48.690;9.022;2022-12-18T01:10:14;-7.30;1.00
2623;DHT22;1321;48.690;9.022;2022-12-18T01:12:42;-7.30;1.00
2623;DHT22;1321;48.690;9.022;2022-12-18T01:15:12;-7.30;1.00
2623;DHT22;1321;48.690;9.022;2022-12-18T01:17:40;-7.40;1.00
2623;DHT22;1321;48.690;9.022;2022-12-18T01:20:12;-7.30;1.00
2623;DHT22;1321;48.690;9.022;2022-12-18T01:22:40;-7.30;1.00
2623;DHT22;1321;48.690;9.022;2022-12-18T01:25:08;-7.30;1.00
2623;DHT22;1321;48.690;9.022;2022-12-18T01:27:36;-7.40;1.00
2623;DHT22;1321;48.690;9.022;2022-12-18T01:30:06;-7.50;1.00
2623;DHT22;1321;48.690;9.022;2022-12-18T01:32:34;-7.50;1.00
2623;DHT22;1321;48.690;9.022;2022-12-18T01:35:03;-7.40;1.00
2623;DHT22;1321;48.690;9.022;2022-12-18T01:37:32;-7.20;1.00
2623;DHT22;1321;48.690;9.022;2022-12-18T01:40:00;-6.80;1.00
2623;DHT22;1321;48.690;9.022;2022-12-18T01:42:29;-6.60;1.00
2623;DHT22;1321;48.690;9.022;2022-12-18T01:45:03;-6.30;1.00
2623;DHT22;1321;48.690;9.022;2022-12-18T01:47:36;-6.30;1.00
2623;DHT22;1321;48.690;9.022;2022-12-18T01:50:08;-6.10;4.50
2623;DHT22;1321;48.690;9.022;2022-12-18T01:52:41;-6.00;1.00
2623;DHT22;1321;48.690;9.022;2022-12-18T01:55:11;-5.90;1.00
2623;DHT22;1321;48.690;9.022;2022-12-18T01:57:40;-5.80;1.00
2623;DHT22;1321;48.690;9.022;2022-12-18T02:00:12;-5.70;1.00
2623;DHT22;1321;48.690;9.022;2022-12-18T02:02:41;-5.80;99.90
2623;DHT22;1321;48.690;9.022;2022-12-18T02:05:12;-5.80;45.60
2623;DHT22;1321;48.690;9.022;2022-12-18T02:07:53;-5.70;1.00
2623;DHT22;1321;48.690;9.022;2022-12-18T02:10:27;-5.60;1.00
2623;DHT22;1321;48.690;9.022;2022-12-18T02:13:02;-5.80;1.00
2623;DHT22;1321;48.690;9.022;2022-12-18T02:15:38;-5.70;1.00
2623;DHT22;1321;48.690;9.022;2022-12-18T02:18:11;-5.80;1.00
2623;DHT22;1321;48.690;9.022;2022-12-18T02:20:45;-5.90;99.90
2623;DHT22;1321;48.690;9.022;2022-12-18T02:23:24;-5.80;99.90
2623;DHT22;1321;48.690;9.022;2022-12-18T02:26:17;-5.40;3.80
2623;DHT22;1321;48.690;9.022;2022-12-18T02:28:51;-5.50;1.00
2623;DHT22;1321;48.690;9.022;2022-12-18T02:31:23;-5.70;1.00
2623;DHT22;1321;48.690;9.022;2022-12-18T02:33:54;-5.60;1.00
2623;DHT22;1321;48.690;9.022;2022-12-18T02:36:25;-5.60;1.00
2623;DHT22;1321;48.690;9.022;2022-12-18T02:38:55;-5.50;1.00
2623;DHT22;1321;48.690;9.022;2022-12-18T02:41:25;-5.60;99.90
2623;DHT22;1321;48.690;9.022;2022-12-18T02:43:57;-5.90;1.00
2623;DHT22;1321;48.690;9.022;2022-12-18T02:46:34;-6.10;1.00
2623;DHT22;1321;48.690;9.022;2022-12-18T02:49:17;-6.40;1.00
2623;DHT22;1321;48.690;9.022;2022-12-18T02:51:51;-6.40;1.00
2623;DHT22;1321;48.690;9.022;2022-12-18T02:54:27;-6.40;1.00
2623;DHT22;1321;48.690;9.022;2022-12-18T02:57:08;-6.30;42.10
2623;DHT22;1321;48.690;9.022;2022-12-18T02:59:42;-6.40;99.90
2623;DHT22;1321;48.690;9.022;2022-12-18T03:02:19;-6.30;99.90
2623;DHT22;1321;48.690;9.022;2022-12-18T03:04:55;-6.30;99.90
2623;DHT22;1321;48.690;9.022;2022-12-18T03:07:32;-6.40;99.90
2623;DHT22;1321;48.690;9.022;2022-12-18T03:10:02;-6.20;1.00
2623;DHT22;1321;48.690;9.022;2022-12-18T03:12:34;-6.30;99.90
2623;DHT22;1321;48.690;9.022;2022-12-18T03:15:06;-6.20;1.00
2623;DHT22;1321;48.690;9.022;2022-12-18T03:17:48;-6.10;1.00
2623;DHT22;1321;48.690;9.022;2022-12-18T03:20:20;-6.20;12.00
2623;DHT22;1321;48.690;9.022;2022-12-18T03:22:52;-6.20;1.00
2623;DHT22;1321;48.690;9.022;2022-12-18T03:25:21;-6.50;1.00
2623;DHT22;1321;48.690;9.022;2022-12-18T03:27:55;-6.50;1.00
2623;DHT22;1321;48.690;9.022;2022-12-18T03:30:25;-6.40;99.90
2623;DHT22;1321;48.690;9.022;2022-12-18T03:32:58;-6.40;99.90
2623;DHT22;1321;48.690;9.022;2022-12-18T03:35:31;-6.60;1.00
2623;DHT22;1321;48.690;9.022;2022-12-18T03:38:01;-6.70;1.00
2623;DHT22;1321;48.690;9.022;2022-12-18T03:40:35;-6.50;99.90
2623;DHT22;1321;48.690;9.022;2022-12-18T03:43:11;-6.60;1.00
2623;DHT22;1321;48.690;9.022;2022-12-18T03:45:45;-6.50;99.90
2623;DHT22;1321;48.690;9.022;2022-12-18T03:48:18;-6.60;99.90
2623;DHT22;1321;48.690;9.022;2022-12-18T03:50:51;-6.50;1.00
2623;DHT22;1321;48.690;9.022;2022-12-18T03:53:28;-6.50;45.20
2623;DHT22;1321;48.690;9.022;2022-12-18T03:56:00;-6.30;1.00
2623;DHT22;1321;48.690;9.022;2022-12-18T03:58:31;-6.30;99.90
2623;DHT22;1321;48.690;9.022;2022-12-18T04:01:03;-6.30;99.90
2623;DHT22;1321;48.690;9.022;2022-12-18T04:03:34;-6.50;99.90
2623;DHT22;1321;48.690;9.022;2022-12-18T04:06:04;-6.40;99.90
2623;DHT22;1321;48.690;9.022;2022-12-18T04:08:34;-6.30;99.90
2623;DHT22;1321;48.690;9.022;2022-12-18T04:11:03;-6.40;99.90
2623;DHT22;1321;48.690;9.022;2022-12-18T04:13:35;-6.30;99.90
2623;DHT22;1321;48.690;9.022;2022-12-18T04:16:05;-6.30;99.90
2623;DHT22;1321;48.690;9.022;2022-12-18T04:18:33;-6.50;99.90
2623;DHT22;1321;48.690;9.022;2022-12-18T04:21:01;-6.40;99.90
2623;DHT22;1321;48.690;9.022;2022-12-18T04:23:29;-6.50;99.90
2623;DHT22;1321;48.690;9.022;2022-12-18T04:25:58;-6.30;1.00
2623;DHT22;1321;48.690;9.022;2022-12-18T04:28:26;-6.40;99.90
2623;DHT22;1321;48.690;9.022;2022-12-18T04:30:55;-6.50;1.00
2623;DHT22;1321;48.690;9.022;2022-12-18T04:33:23;-6.40;90.40
2623;DHT22;1321;48.690;9.022;2022-12-18T04:35:52;-6.40;1.00
2623;DHT22;1321;48.690;9.022;2022-12-18T04:38:20;-6.40;1.00
2623;DHT22;1321;48.690;9.022;2022-12-18T04:40:48;-6.40;1.00
2623;DHT22;1321;48.690;9.022;2022-12-18T04:43:16;-6.50;1.00
2623;DHT22;1321;48.690;9.022;2022-12-18T04:45:44;-6.50;99.90
2623;DHT22;1321;48.690;9.022;2022-12-18T04:48:14;-6.70;99.90
2623;DHT22;1321;48.690;9.022;2022-12-18T04:50:42;-6.70;1.00
2623;DHT22;1321;48.690;9.022;2022-12-18T04:53:10;-6.80;99.90
2623;DHT22;1321;48.690;9.022;2022-12-18T04:55:38;-6.70;99.90
2623;DHT22;1321;48.690;9.022;2022-12-18T04:58:06;-6.60;99.90
2623;DHT22;1321;48.690;9.022;2022-12-18T05:00:35;-6.80;1.00
2623;DHT22;1321;48.690;9.022;2022-12-18T05:03:03;-6.50;1.00
2623;DHT22;1321;48.690;9.022;2022-12-18T05:05:34;-6.60;99.90
2623;DHT22;1321;48.690;9.022;2022-12-18T05:08:02;-6.60;1.00
2623;DHT22;1321;48.690;9.022;2022-12-18T05:10:31;-6.80;99.90
2623;DHT22;1321;48.690;9.022;2022-12-18T05:13:04;-6.70;54.40
2623;DHT22;1321;48.690;9.022;2022-12-18T05:15:33;-6.60;1.00
2623;DHT22;1321;48.690;9.022;2022-12-18T05:18:02;-6.60;1.00
2623;DHT22;1321;48.690;9.022;2022-12-18T05:20:32;-6.60;1.00
2623;DHT22;1321;48.690;9.022;2022-12-18T05:23:00;-6.50;99.90
2623;DHT22;1321;48.690;9.022;2022-12-18T05:25:28;-6.60;99.90
2623;DHT22;1321;48.690;9.022;2022-12-18T05:27:57;-6.70;99.90
2623;DHT22;1321;48.690;9.022;2022-12-18T05:30:25;-6.70;1.00
2623;DHT22;1321;48.690;9.022;2022-12-18T05:32:54;-6.50;1.00
2623;DHT22;1321;48.690;9.022;2022-12-18T05:35:22;-6.50;1.00
2623;DHT22;1321;48.690;9.022;2022-12-18T05:37:51;-6.70;99.90
2623;DHT22;1321;48.690;9.022;2022-12-18T05:40:20;-6.70;1.00
2623;DHT22;1321;48.690;9.022;2022-12-18T05:42:48;-6.70;1.00
2623;DHT22;1321;48.690;9.022;2022-12-18T05:45:16;-6.70;99.90
2623;DHT22;1321;48.690;9.022;2022-12-18T05:47:44;-6.70;99.90
2623;DHT22;1321;48.690;9.022;2022-12-18T05:50:12;-6.70;1.00
2623;DHT22;1321;48.690;9.022;2022-12-18T05:52:40;-6.70;1.00
2623;DHT22;1321;48.690;9.022;2022-12-18T05:55:10;-6.70;1.00
2623;DHT22;1321;48.690;9.022;2022-12-18T05:57:38;-6.60;1.00
2623;DHT22;1321;48.690;9.022;2022-12-18T06:00:07;-6.50;95.70
2623;DHT22;1321;48.690;9.022;2022-12-18T06:02:36;-6.50;1.00
2623;DHT22;1321;48.690;9.022;2022-12-18T06:05:05;-6.50;1.00
2623;DHT22;1321;48.690;9.022;2022-12-18T06:07:33;-6.30;99.90
2623;DHT22;1321;48.690;9.022;2022-12-18T06:10:02;-6.40;99.90
2623;DHT22;1321;48.690;9.022;2022-12-18T06:12:31;-6.30;1.00
2623;DHT22;1321;48.690;9.022;2022-12-18T06:15:00;-6.40;99.90
2623;DHT22;1321;48.690;9.022;2022-12-18T06:17:28;-6.40;1.00
2623;DHT22;1321;48.690;9.022;2022-12-18T06:19:57;-6.30;99.90
2623;DHT22;1321;48.690;9.022;2022-12-18T06:22:25;-6.30;99.90
2623;DHT22;1321;48.690;9.022;2022-12-18T06:24:54;-6.10;1.00
2623;DHT22;1321;48.690;9.022;2022-12-18T06:27:22;-6.10;99.90
2623;DHT22;1321;48.690;9.022;2022-12-18T06:29:52;-6.20;1.00
2623;DHT22;1321;48.690;9.022;2022-12-18T06:32:20;-6.20;99.90
2623;DHT22;1321;48.690;9.022;2022-12-18T06:34:48;-6.30;99.90
2623;DHT22;1321;48.690;9.022;2022-12-18T06:37:17;-6.30;1.00
2623;DHT22;1321;48.690;9.022;2022-12-18T06:39:45;-6.20;99.90
2623;DHT22;1321;48.690;9.022;2022-12-18T06:42:13;-6.30;99.90
2623;DHT22;1321;48.690;9.022;2022-12-18T06:44:41;-6.30;1.00
2623;DHT22;1321;48.690;9.022;2022-12-18T06:47:11;-6.40;99.90
2623;DHT22;1321;48.690;9.022;2022-12-18T06:49:39;-6.30;99.90
2623;DHT22;1321;48.690;9.022;2022-12-18T06:52:08;-6.30;99.90
2623;DHT22;1321;48.690;9.022;2022-12-18T06:54:36;-6.30;99.90
2623;DHT22;1321;48.690;9.022;2022-12-18T06:57:04;-6.30;99.90
2623;DHT22;1321;48.690;9.022;2022-12-18T06:59:33;-6.20;99.90
2623;DHT22;1321;48.690;9.022;2022-12-18T07:02:01;-6.20;99.90
2623;DHT22;1321;48.690;9.022;2022-12-18T07:04:31;-6.10;99.90
2623;DHT22;1321;48.690;9.022;2022-12-18T07:06:59;-6.10;99.90
2623;DHT22;1321;48.690;9.022;2022-12-18T07:09:27;-6.00;1.00
2623;DHT22;1321;48.690;9.022;2022-12-18T07:11:55;-6.20;99.90
2623;DHT22;1321;48.690;9.022;2022-12-18T07:14:23;-6.00;1.00
2623;DHT22;1321;48.690;9.022;2022-12-18T07:16:51;-6.20;99.90
2623;DHT22;1321;48.690;9.022;2022-12-18T07:19:20;-6.10;1.00
2623;DHT22;1321;48.690;9.022;2022-12-18T07:21:51;-6.20;1.00
2623;DHT22;1321;48.690;9.022;2022-12-18T07:24:19;-6.10;99.90
2623;DHT22;1321;48.690;9.022;2022-12-18T07:26:47;-6.10;99.90
2623;DHT22;1321;48.690;9.022;2022-12-18T07:29:16;-5.90;99.90
2623;DHT22;1321;48.690;9.022;2022-12-18T07:31:44;-5.90;1.00
2623;DHT22;1321;48.690;9.022;2022-12-18T07:34:13;-5.70;1.00
2623;DHT22;1321;48.690;9.022;2022-12-18T07:36:41;-5.60;1.00
2623;DHT22;1321;48.690;9.022;2022-12-18T07:39:12;-5.60;1.00
2623;DHT22;1321;48.690;9.022;2022-12-18T07:41:40;-5.80;1.00
2623;DHT22;1321;48.690;9.022;2022-12-18T07:44:13;-5.70;1.00
2623;DHT22;1321;48.690;9.022;2022-12-18T07:46:42;-5.70;1.00
2623;DHT22;1321;48.690;9.022;2022-12-18T07:49:10;-5.70;1.00
2623;DHT22;1321;48.690;9.022;2022-12-18T07:51:39;-5.70;50.00
2623;DHT22;1321;48.690;9.022;2022-12-18T07:54:07;-5.70;99.90
2623;DHT22;1321;48.690;9.022;2022-12-18T07:56:36;-5.70;99.90
2623;DHT22;1321;48.690;9.022;2022-12-18T07:59:04;-5.60;99.90
2623;DHT22;1321;48.690;9.022;2022-12-18T08:01:33;-5.60;99.80
2623;DHT22;1321;48.690;9.022;2022-12-18T08:04:02;-5.50;82.50
2623;DHT22;1321;48.690;9.022;2022-12-18T08:06:30;-5.30;40.60
2623;DHT22;1321;48.690;9.022;2022-12-18T08:08:58;-5.20;11.30
2623;DHT22;1321;48.690;9.022;2022-12-18T08:11:28;-5.20;1.00
2623;DHT22;1321;48.690;9.022;2022-12-18T08:13:58;-5.20;93.40
2623;DHT22;1321;48.690;9.022;2022-12-18T08:16:26;-5.20;99.90
2623;DHT22;1321;48.690;9.022;2022-12-18T08:18:55;-5.00;99.90
2623;DHT22;1321;48.690;9.022;2022-12-18T08:21:24;-4.90;99.90
2623;DHT22;1321;48.690;9.022;2022-12-18T08:23:55;-4.70;1.00
2623;DHT22;1321;48.690;9.022;2022-12-18T08:26:26;-4.60;1.00
2623;DHT22;1321;48.690;9.022;2022-12-18T08:28:55;-4.60;1.00
2623;DHT22;1321;48.690;9.022;2022-12-18T08:31:26;-4.60;1.00
2623;DHT22;1321;48.690;9.022;2022-12-18T08:33:55;-4.50;1.00
2623;DHT22;1321;48.690;9.022;2022-12-18T08:36:24;-4.40;1.00
2623;DHT22;1321;48.690;9.022;2022-12-18T08:38:53;-4.40;1.00
2623;DHT22;1321;48.690;9.022;2022-12-18T08:41:21;-4.40;88.50
2623;DHT22;1321;48.690;9.022;2022-12-18T08:43:50;-4.20;1.00
2623;DHT22;1321;48.690;9.022;2022-12-18T08:46:39;-4.30;1.00
2623;DHT22;1321;48.690;9.022;2022-12-18T08:49:08;-4.20;1.00
2623;DHT22;1321;48.690;9.022;2022-12-18T08:51:37;-4.30;7.20
2623;DHT22;1321;48.690;9.022;2022-12-18T08:54:06;-4.40;99.90
2623;DHT22;1321;48.690;9.022;2022-12-18T08:56:34;-4.30;1.00
2623;DHT22;1321;48.690;9.022;2022-12-18T08:59:03;-4.10;99.90
2623;DHT22;1321;48.690;9.022;2022-12-18T09:01:32;-4.00;99.90
2623;DHT22;1321;48.690;9.022;2022-12-18T09:04:03;-3.80;1.00
2623;DHT22;1321;48.690;9.022;2022-12-18T09:06:33;-3.80;1.00
2623;DHT22;1321;48.690;9.022;2022-12-18T09:09:02;-3.80;1.00
2623;DHT22;1321;48.690;9.022;2022-12-18T09:11:31;-3.70;99.90
2623;DHT22;1321;48.690;9.022;2022-12-18T09:14:00;-3.70;99.90
2623;DHT22;1321;48.690;9.022;2022-12-18T09:16:29;-3.60;99.90
2623;DHT22;1321;48.690;9.022;2022-12-18T09:18:59;-3.40;48.30
2623;DHT22;1321;48.690;9.022;2022-12-18T09:21:30;-3.30;99.90
2623;DHT22;1321;48.690;9.022;2022-12-18T09:24:03;-3.20;99.90
2623;DHT22;1321;48.690;9.022;2022-12-18T09:26:35;-3.20;1.00
2623;DHT22;1321;48.690;9.022;2022-12-18T09:29:04;-3.20;1.00
2623;DHT22;1321;48.690;9.022;2022-12-18T09:31:34;-2.90;1.00
2623;DHT22;1321;48.690;9.022;2022-12-18T09:34:05;-2.80;24.40
2623;DHT22;1321;48.690;9.022;2022-12-18T09:36:34;-2.60;99.90
2623;DHT22;1321;48.690;9.022;2022-12-18T09:39:03;-2.40;99.90
2623;DHT22;1321;48.690;9.022;2022-12-18T09:41:43;-2.40;99.90
2623;DHT22;1321;48.690;9.022;2022-12-18T09:44:20;-2.30;99.90
2623;DHT22;1321;48.690;9.022;2022-12-18T09:46:54;-2.20;99.90
2623;DHT22;1321;48.690;9.022;2022-12-18T09:49:29;-2.00;12.60
2623;DHT22;1321;48.690;9.022;2022-12-18T09:52:03;-1.90;10.70
2623;DHT22;1321;48.690;9.022;2022-12-18T09:54:38;-1.60;1.00
2623;DHT22;1321;48.690;9.022;2022-12-18T09:57:12;-1.40;1.00
2623;DHT22;1321;48.690;9.022;2022-12-18T09:59:44;-1.00;1.00
2623;DHT22;1321;48.690;9.022;2022-12-18T10:02:16;-0.70;1.00
2623;DHT22;1321;48.690;9.022;2022-12-18T10:04:48;-0.50;1.00
2623;DHT22;1321;48.690;9.022;2022-12-18T10:07:27;-0.50;99.90
2623;DHT22;1321;48.690;9.022;2022-12-18T10:10:04;-0.10;1.00
2623;DHT22;1321;48.690;9.022;2022-12-18T10:12:41;0.20;99.90
2623;DHT22;1321;48.690;9.022;2022-12-18T10:15:16;0.10;99.90
2623;DHT22;1321;48.690;9.022;2022-12-18T10:17:53;0.50;99.90
2623;DHT22;1321;48.690;9.022;2022-12-18T10:20:29;0.40;99.90
2623;DHT22;1321;48.690;9.022;2022-12-18T10:23:04;0.50;99.90
2623;DHT22;1321;48.690;9.022;2022-12-18T10:25:38;0.60;99.90
2623;DHT22;1321;48.690;9.022;2022-12-18T10:28:11;0.50;99.90
2623;DHT22;1321;48.690;9.022;2022-12-18T10:30:41;0.70;99.90
2623;DHT22;1321;48.690;9.022;2022-12-18T10:33:11;0.80;99.90
2623;DHT22;1321;48.690;9.022;2022-12-18T10:35:41;1.10;99.90
2623;DHT22;1321;48.690;9.022;2022-12-18T10:38:24;1.20;99.90
2623;DHT22;1321;48.690;9.022;2022-12-18T10:40:54;1.00;99.90
2623;DHT22;1321;48.690;9.022;2022-12-18T10:43:25;1.40;99.90
2623;DHT22;1321;48.690;9.022;2022-12-18T10:46:11;1.50;99.90
2623;DHT22;1321;48.690;9.022;2022-12-18T10:48:50;1.40;99.90
2623;DHT22;1321;48.690;9.022;2022-12-18T10:51:22;1.00;99.90
2623;DHT22;1321;48.690;9.022;2022-12-18T10:53:57;1.00;99.90
2623;DHT22;1321;48.690;9.022;2022-12-18T10:56:30;1.10;99.90
2623;DHT22;1321;48.690;9.022;2022-12-18T10:59:01;1.10;99.90
2623;DHT22;1321;48.690;9.022;2022-12-18T11:01:46;1.40;99.90
2623;DHT22;1321;48.690;9.022;2022-12-18T11:04:18;1.10;99.90
2623;DHT22;1321;48.690;9.022;2022-12-18T11:06:58;1.50;99.90
2623;DHT22;1321;48.690;9.022;2022-12-18T11:09:29;1.30;99.90
2623;DHT22;1321;48.690;9.022;2022-12-18T11:12:01;1.30;99.90
2623;DHT22;1321;48.690;9.022;2022-12-18T11:14:33;1.70;99.90
2623;DHT22;1321;48.690;9.022;2022-12-18T11:17:01;1.50;99.90
2623;DHT22;1321;48.690;9.022;2022-12-18T11:19:53;1.60;99.90
2623;DHT22;1321;48.690;9.022;2022-12-18T11:22:24;1.60;99.90
2623;DHT22;1321;48.690;9.022;2022-12-18T11:24:58;1.90;99.90
2623;DHT22;1321;48.690;9.022;2022-12-18T11:27:52;1.60;99.90
2623;DHT22;1321;48.690;9.022;2022-12-18T11:30:24;1.10;99.90
2623;DHT22;1321;48.690;9.022;2022-12-18T11:32:56;0.90;99.90
2623;DHT22;1321;48.690;9.022;2022-12-18T11:35:40;0.90;99.90
2623;DHT22;1321;48.690;9.022;2022-12-18T11:38:21;0.80;99.90
2623;DHT22;1321;48.690;9.022;2022-12-18T11:40:58;0.50;99.90
2623;DHT22;1321;48.690;9.022;2022-12-18T11:43:29;0.50;99.90
2623;DHT22;1321;48.690;9.022;2022-12-18T11:46:02;0.80;99.90
2623;DHT22;1321;48.690;9.022;2022-12-18T11:48:36;0.70;99.90
2623;DHT22;1321;48.690;9.022;2022-12-18T11:51:13;0.70;99.90
2623;DHT22;1321;48.690;9.022;2022-12-18T11:53:43;0.80;99.90
2623;DHT22;1321;48.690;9.022;2022-12-18T11:56:28;0.70;99.90
2623;DHT22;1321;48.690;9.022;2022-12-18T11:59:07;0.70;99.90
2623;DHT22;1321;48.690;9.022;2022-12-18T12:01:48;0.60;99.90
2623;DHT22;1321;48.690;9.022;2022-12-18T12:04:44;0.40;99.90
2623;DHT22;1321;48.690;9.022;2022-12-18T12:07:25;0.40;99.90
2623;DHT22;1321;48.690;9.022;2022-12-18T12:10:05;0.70;99.90
2623;DHT22;1321;48.690;9.022;2022-12-18T12:12:55;0.50;99.90
2623;DHT22;1321;48.690;9.022;2022-12-18T12:15:35;0.50;99.90
2623;DHT22;1321;48.690;9.022;2022-12-18T12:18:17;0.10;99.90
2623;DHT22;1321;48.690;9.022;2022-12-18T12:20:56;0.30;99.90
2623;DHT22;1321;48.690;9.022;2022-12-18T12:23:37;0.30;99.90
2623;DHT22;1321;48.690;9.022;2022-12-18T12:26:13;0.30;99.90
2623;DHT22;1321;48.690;9.022;2022-12-18T12:29:05;0.10;99.90
2623;DHT22;1321;48.690;9.022;2022-12-18T12:32:00;0.40;99.90
2623;DHT22;1321;48.690;9.022;2022-12-18T12:34:37;0.00;99.90
2623;DHT22;1321;48.690;9.022;2022-12-18T12:37:22;0.10;99.90
2623;DHT22;1321;48.690;9.022;2022-12-18T12:39:54;-0.10;1.00
2623;DHT22;1321;48.690;9.022;2022-12-18T12:42:29;-0.40;99.90
2623;DHT22;1321;48.690;9.022;2022-12-18T12:45:22;-0.20;1.00
2623;DHT22;1321;48.690;9.022;2022-12-18T12:47:51;-0.10;1.00
2623;DHT22;1321;48.690;9.022;2022-12-18T12:50:21;0.00;1.00
2623;DHT22;1321;48.690;9.022;2022-12-18T12:52:52;0.10;1.00
2623;DHT22;1321;48.690;9.022;2022-12-18T12:55:23;-0.10;1.00
2623;DHT22;1321;48.690;9.022;2022-12-18T12:58:00;-0.20;1.00
2623;DHT22;1321;48.690;9.022;2022-12-18T13:00:37;-0.20;1.00
2623;DHT22;1321;48.690;9.022;2022-12-18T13:03:13;-0.10;1.00
2623;DHT22;1321;48.690;9.022;2022-12-18T13:05:48;0.00;1.00
2623;DHT22;1321;48.690;9.022;2022-12-18T13:08:23;0.00;1.00
2623;DHT22;1321;48.690;9.022;2022-12-18T13:10:53;-0.30;1.00
2623;DHT22;1321;48.690;9.022;2022-12-18T13:13:49;-0.20;1.00
2623;DHT22;1321;48.690;9.022;2022-12-18T13:16:21;-0.20;1.00
2623;DHT22;1321;48.690;9.022;2022-12-18T13:18:51;0.00;1.00
2623;DHT22;1321;48.690;9.022;2022-12-18T13:21:23;0.10;1.00
2623;DHT22;1321;48.690;9.022;2022-12-18T13:23:53;0.10;1.00
2623;DHT22;1321;48.690;9.022;2022-12-18T13:26:31;0.20;1.00
2623;DHT22;1321;48.690;9.022;2022-12-18T13:29:01;0.20;1.00
2623;DHT22;1321;48.690;9.022;2022-12-18T13:34:30;-0.20;1.00
2623;DHT22;1321;48.690;9.022;2022-12-18T13:39:57;-0.10;48.20
2623;DHT22;1321;48.690;9.022;2022-12-18T13:42:38;-0.30;99.90
2623;DHT22;1321;48.690;9.022;2022-12-18T13:45:40;-0.20;99.90
2623;DHT22;1321;48.690;9.022;2022-12-18T13:48:19;-0.20;99.90
2623;DHT22;1321;48.690;9.022;2022-12-18T13:51:01;-0.10;99.90
2623;DHT22;1321;48.690;9.022;2022-12-18T13:53:34;-0.30;99.90
2623;DHT22;1321;48.690;9.022;2022-12-18T13:56:05;-0.30;99.90
2623;DHT22;1321;48.690;9.022;2022-12-18T13:58:33;-0.30;1.00
2623;DHT22;1321;48.690;9.022;2022-12-18T14:01:01;-0.10;99.90
2623;DHT22;1321;48.690;9.022;2022-12-18T14:03:31;-0.10;99.90
2623;DHT22;1321;48.690;9.022;2022-12-18T14:06:07;-0.20;1.00
2623;DHT22;1321;48.690;9.022;2022-12-18T14:08:39;-0.30;99.90
2623;DHT22;1321;48.690;9.022;2022-12-18T14:11:19;-0.40;1.00
2623;DHT22;1321;48.690;9.022;2022-12-18T14:13:49;-0.50;1.00
2623;DHT22;1321;48.690;9.022;2022-12-18T14:16:17;-0.60;1.00
2623;DHT22;1321;48.690;9.022;2022-12-18T14:18:48;-0.50;1.00
2623;DHT22;1321;48.690;9.022;2022-12-18T14:21:27;-0.40;1.00
2623;DHT22;1321;48.690;9.022;2022-12-18T14:24:12;-0.60;1.00
2623;DHT22;1321;48.690;9.022;2022-12-18T14:26:43;-0.70;1.00
2623;DHT22;1321;48.690;9.022;2022-12-18T14:29:24;-0.70;1.00
2623;DHT22;1321;48.690;9.022;2022-12-18T14:32:07;-0.70;1.00
2623;DHT22;1321;48.690;9.022;2022-12-18T14:34:43;-0.70;1.00
2623;DHT22;1321;48.690;9.022;2022-12-18T14:37:15;-0.60;1.00
2623;DHT22;1321;48.690;9.022;2022-12-18T14:39:55;-0.80;1.00
2623;DHT22;1321;48.690;9.022;2022-12-18T14:42:24;-0.70;1.00
2623;DHT22;1321;48.690;9.022;2022-12-18T14:45:32;-0.80;1.00
2623;DHT22;1321;48.690;9.022;2022-12-18T14:48:11;-0.90;1.00
2623;DHT22;1321;48.690;9.022;2022-12-18T14:51:02;-1.10;1.00
2623;DHT22;1321;48.690;9.022;2022-12-18T14:53:37;-1.10;1.00
2623;DHT22;1321;48.690;9.022;2022-12-18T14:56:17;-1.20;1.00
2623;DHT22;1321;48.690;9.022;2022-12-18T14:58:52;-1.20;20.50
2623;DHT22;1321;48.690;9.022;2022-12-18T15:01:26;-1.20;43.00
2623;DHT22;1321;48.690;9.022;2022-12-18T15:03:56;-1.20;99.90
2623;DHT22;1321;48.690;9.022;2022-12-18T15:06:31;-1.30;99.90
2623;DHT22;1321;48.690;9.022;2022-12-18T15:09:04;-1.30;99.90
2623;DHT22;1321;48.690;9.022;2022-12-18T15:11:45;-1.30;99.90
2623;DHT22;1321;48.690;9.022;2022-12-18T15:14:33;-1.40;13.80
2623;DHT22;1321;48.690;9.022;2022-12-18T15:17:05;-1.50;99.90
2623;DHT22;1321;48.690;9.022;2022-12-18T15:19:37;-1.50;36.50
2623;DHT22;1321;48.690;9.022;2022-12-18T15:22:18;-1.50;1.00
2623;DHT22;1321;48.690;9.022;2022-12-18T15:24:49;-1.50;96.10
2623;DHT22;1321;48.690;9.022;2022-12-18T15:27:27;-1.50;1.00
2623;DHT22;1321;48.690;9.022;2022-12-18T15:30:17;-1.40;1.00
2623;DHT22;1321;48.690;9.022;2022-12-18T15:32:46;-1.40;99.90
2623;DHT22;1321;48.690;9.022;2022-12-18T15:35:17;-1.50;1.00
2623;DHT22;1321;48.690;9.022;2022-12-18T15:37:45;-1.50;1.00
2623;DHT22;1321;48.690;9.022;2022-12-18T15:40:16;-1.60;1.00
2623;DHT22;1321;48.690;9.022;2022-12-18T15:42:46;-1.60;1.00
2623;DHT22;1321;48.690;9.022;2022-12-18T15:45:33;-1.70;99.90
2623;DHT22;1321;48.690;9.022;2022-12-18T15:48:01;-1.70;99.90
2623;DHT22;1321;48.690;9.022;2022-12-18T15:50:29;-1.70;1.00
2623;DHT22;1321;48.690;9.022;2022-12-18T15:52:57;-1.70;60.80
2623;DHT22;1321;48.690;9.022;2022-12-18T15:55:27;-1.70;1.00
2623;DHT22;1321;48.690;9.022;2022-12-18T15:58:12;-1.70;1.00
2623;DHT22;1321;48.690;9.022;2022-12-18T16:00:42;-1.70;1.00
2623;DHT22;1321;48.690;9.022;2022-12-18T16:03:12;-1.80;1.00
2623;DHT22;1321;48.690;9.022;2022-12-18T16:05:41;-1.70;87.40
2623;DHT22;1321;48.690;9.022;2022-12-18T16:08:09;-1.70;1.00
2623;DHT22;1321;48.690;9.022;2022-12-18T16:10:38;-1.80;1.00
2623;DHT22;1321;48.690;9.022;2022-12-18T16:13:09;-1.90;99.90
2623;DHT22;1321;48.690;9.022;2022-12-18T16:15:37;-1.90;99.90
2623;DHT22;1321;48.690;9.022;2022-12-18T16:18:06;-1.80;80.70
2623;DHT22;1321;48.690;9.022;2022-12-18T16:20:34;-1.90;28.50
2623;DHT22;1321;48.690;9.022;2022-12-18T16:23:03;-2.00;99.90
2623;DHT22;1321;48.690;9.022;2022-12-18T16:25:31;-2.00;99.90
2623;DHT22;1321;48.690;9.022;2022-12-18T16:28:01;-2.00;99.90
2623;DHT22;1321;48.690;9.022;2022-12-18T16:30:31;-2.00;99.90
2623;DHT22;1321;48.690;9.022;2022-12-18T16:33:04;-1.90;1.00
2623;DHT22;1321;48.690;9.022;2022-12-18T16:35:33;-1.90;99.90
2623;DHT22;1321;48.690;9.022;2022-12-18T16:38:03;-1.80;99.90
2623;DHT22;1321;48.690;9.022;2022-12-18T16:40:32;-1.90;1.00
2623;DHT22;1321;48.690;9.022;2022-12-18T16:43:22;-1.70;57.30
2623;DHT22;1321;48.690;9.022;2022-12-18T16:45:50;-1.90;99.90
2623;DHT22;1321;48.690;9.022;2022-12-18T16:48:18;-1.80;1.00
2623;DHT22;1321;48.690;9.022;2022-12-18T16:50:47;-1.90;99.90
2623;DHT22;1321;48.690;9.022;2022-12-18T16:53:15;-1.70;82.70